sensor_id;sensor_type;location;lat;lon;timestamp;temperature;humidity
10304;DHT22;5197;48.152;8.590;2023-05-10T00:00:29;12.80;23.90
10304;DHT22;5197;48.152;8.590;2023-05-10T00:02:57;12.70;24.10
10304;DHT22;5197;48.152;8.590;2023-05-10T00:05:24;12.70;24.50
10304;DHT22;5197;48.152;8.590;2023-05-10T00:07:51;12.70;24.80
10304;DHT22;5197;48.152;8.590;2023-05-10T00:10:18;12.70;24.80
10304;DHT22;5197;48.152;8.590;2023-05-10T00:12:45;12.60;25.40
10304;DHT22;5197;48.152;8.590;2023-05-10T00:15:12;12.60;24.90
10304;DHT22;5197;48.152;8.590;2023-05-10T00:17:39;12.60;24.90
10304;DHT22;5197;48.152;8.590;2023-05-10T00:20:07;12.60;24.70
10304;DHT22;5197;48.152;8.590;2023-05-10T00:22:34;12.50;24.80
10304;DHT22;5197;48.152;8.590;2023-05-10T00:25:01;12.40;25.20
10304;DHT22;5197;48.152;8.590;2023-05-10T00:27:28;12.30;25.60
10304;DHT22;5197;48.152;8.590;2023-05-10T00:29:55;12.30;25.80
10304;DHT22;5197;48.152;8.590;2023-05-10T00:32:22;12.30;25.60
10304;DHT22;5197;48.152;8.590;2023-05-10T00:34:49;12.30;25.30
10304;DHT22;5197;48.152;8.590;2023-05-10T00:37:16;12.30;24.90
10304;DHT22;5197;48.152;8.590;2023-05-10T00:39:43;12.20;25.20
10304;DHT22;5197;48.152;8.590;2023-05-10T00:42:09;12.10;25.50
10304;DHT22;5197;48.152;8.590;2023-05-10T00:44:37;12.10;25.60
10304;DHT22;5197;48.152;8.590;2023-05-10T00:47:04;12.10;25.70
10304;DHT22;5197;48.152;8.590;2023-05-10T00:49:31;12.10;26.00
10304;DHT22;5197;48.152;8.590;2023-05-10T00:51:58;12.00;26.10
10304;DHT22;5197;48.152;8.590;2023-05-10T00:54:25;12.00;26.60
10304;DHT22;5197;48.152;8.590;2023-05-10T00:56:52;11.90;26.70
10304;DHT22;5197;48.152;8.590;2023-05-10T00:59:19;11.80;27.00
10304;DHT22;5197;48.152;8.590;2023-05-10T01:01:46;11.80;27.80
10304;DHT22;5197;48.152;8.590;2023-05-10T01:04:14;11.70;28.00
10304;DHT22;5197;48.152;8.590;2023-05-10T01:06:42;11.70;28.30
10304;DHT22;5197;48.152;8.590;2023-05-10T01:09:10;11.70;28.20
10304;DHT22;5197;48.152;8.590;2023-05-10T01:11:39;11.70;27.90
10304;DHT22;5197;48.152;8.590;2023-05-10T01:14:06;11.70;27.60
10304;DHT22;5197;48.152;8.590;2023-05-10T01:16:37;11.70;27.40
10304;DHT22;5197;48.152;8.590;2023-05-10T01:19:25;11.60;27.50
10304;DHT22;5197;48.152;8.590;2023-05-10T01:27:25;11.60;26.90
10304;DHT22;5197;48.152;8.590;2023-05-10T01:39:17;11.40;27.30
10304;DHT22;5197;48.152;8.590;2023-05-10T01:41:52;11.40;27.20
10304;DHT22;5197;48.152;8.590;2023-05-10T01:44:32;11.40;26.90
10304;DHT22;5197;48.152;8.590;2023-05-10T01:47:24;11.40;26.30
10304;DHT22;5197;48.152;8.590;2023-05-10T01:49:54;11.50;26.00
10304;DHT22;5197;48.152;8.590;2023-05-10T01:52:33;11.50;25.80
10304;DHT22;5197;48.152;8.590;2023-05-10T01:55:09;11.50;25.50
10304;DHT22;5197;48.152;8.590;2023-05-10T01:57:39;11.60;25.30
10304;DHT22;5197;48.152;8.590;2023-05-10T02:00:10;11.60;25.10
10304;DHT22;5197;48.152;8.590;2023-05-10T02:02:39;11.60;24.90
10304;DHT22;5197;48.152;8.590;2023-05-10T02:05:06;11.70;24.60
10304;DHT22;5197;48.152;8.590;2023-05-10T02:07:36;11.70;24.20
10304;DHT22;5197;48.152;8.590;2023-05-10T02:10:07;11.70;24.10
10304;DHT22;5197;48.152;8.590;2023-05-10T02:12:41;11.80;24.00
10304;DHT22;5197;48.152;8.590;2023-05-10T02:15:09;11.80;23.90
10304;DHT22;5197;48.152;8.590;2023-05-10T02:17:37;11.80;23.80
10304;DHT22;5197;48.152;8.590;2023-05-10T02:20:06;11.80;23.70
10304;DHT22;5197;48.152;8.590;2023-05-10T02:22:35;11.90;24.00
10304;DHT22;5197;48.152;8.590;2023-05-10T02:25:03;11.90;24.10
10304;DHT22;5197;48.152;8.590;2023-05-10T02:27:31;11.90;24.40
10304;DHT22;5197;48.152;8.590;2023-05-10T02:29:58;11.90;24.40
10304;DHT22;5197;48.152;8.590;2023-05-10T02:32:27;11.90;24.60
10304;DHT22;5197;48.152;8.590;2023-05-10T02:34:54;11.90;24.70
10304;DHT22;5197;48.152;8.590;2023-05-10T02:37:22;11.90;24.80
10304;DHT22;5197;48.152;8.590;2023-05-10T02:39:53;12.00;25.00
10304;DHT22;5197;48.152;8.590;2023-05-10T02:42:25;12.00;25.10
10304;DHT22;5197;48.152;8.590;2023-05-10T02:44:55;12.00;25.30
10304;DHT22;5197;48.152;8.590;2023-05-10T02:47:23;12.00;25.40
10304;DHT22;5197;48.152;8.590;2023-05-10T02:49:50;12.00;25.50
10304;DHT22;5197;48.152;8.590;2023-05-10T02:52:23;12.00;25.70
10304;DHT22;5197;48.152;8.590;2023-05-10T02:54:55;12.00;25.80
10304;DHT22;5197;48.152;8.590;2023-05-10T02:57:27;12.00;26.00
10304;DHT22;5197;48.152;8.590;2023-05-10T02:59:54;12.00;26.00
10304;DHT22;5197;48.152;8.590;2023-05-10T03:02:22;12.00;26.20
10304;DHT22;5197;48.152;8.590;2023-05-10T03:04:49;12.00;26.30
10304;DHT22;5197;48.152;8.590;2023-05-10T03:07:16;12.00;26.50
10304;DHT22;5197;48.152;8.590;2023-05-10T03:09:45;12.00;26.60
10304;DHT22;5197;48.152;8.590;2023-05-10T03:15:19;12.00;26.60
10304;DHT22;5197;48.152;8.590;2023-05-10T03:18:22;12.00;26.40
10304;DHT22;5197;48.152;8.590;2023-05-10T03:20:51;12.00;26.60
10304;DHT22;5197;48.152;8.590;2023-05-10T03:23:29;11.90;27.30
10304;DHT22;5197;48.152;8.590;2023-05-10T03:26:01;11.90;27.30
10304;DHT22;5197;48.152;8.590;2023-05-10T03:28:30;11.90;27.20
10304;DHT22;5197;48.152;8.590;2023-05-10T03:30:59;11.90;27.80
10304;DHT22;5197;48.152;8.590;2023-05-10T03:33:26;11.90;28.10
10304;DHT22;5197;48.152;8.590;2023-05-10T03:35:53;11.80;28.20
10304;DHT22;5197;48.152;8.590;2023-05-10T03:38:20;11.90;28.40
10304;DHT22;5197;48.152;8.590;2023-05-10T03:40:47;11.90;28.40
10304;DHT22;5197;48.152;8.590;2023-05-10T03:43:14;11.90;28.60
10304;DHT22;5197;48.152;8.590;2023-05-10T03:45:41;11.90;28.50
10304;DHT22;5197;48.152;8.590;2023-05-10T03:48:08;11.90;28.60
10304;DHT22;5197;48.152;8.590;2023-05-10T03:50:35;11.90;28.70
10304;DHT22;5197;48.152;8.590;2023-05-10T03:53:02;11.90;28.70
10304;DHT22;5197;48.152;8.590;2023-05-10T03:55:48;11.90;29.00
10304;DHT22;5197;48.152;8.590;2023-05-10T03:58:35;11.90;28.90
10304;DHT22;5197;48.152;8.590;2023-05-10T04:01:22;11.90;29.10
10304;DHT22;5197;48.152;8.590;2023-05-10T04:04:04;11.90;29.20
10304;DHT22;5197;48.152;8.590;2023-05-10T04:06:31;11.90;29.20
10304;DHT22;5197;48.152;8.590;2023-05-10T04:08:58;11.90;29.30
10304;DHT22;5197;48.152;8.590;2023-05-10T04:11:27;11.90;30.30
10304;DHT22;5197;48.152;8.590;2023-05-10T04:13:54;11.90;29.60
10304;DHT22;5197;48.152;8.590;2023-05-10T04:16:21;11.80;29.40
10304;DHT22;5197;48.152;8.590;2023-05-10T04:18:48;11.80;29.50
10304;DHT22;5197;48.152;8.590;2023-05-10T04:21:15;11.90;29.70
10304;DHT22;5197;48.152;8.590;2023-05-10T04:23:42;11.90;29.50
10304;DHT22;5197;48.152;8.590;2023-05-10T04:26:09;11.90;29.50
10304;DHT22;5197;48.152;8.590;2023-05-10T04:28:36;11.80;29.50
10304;DHT22;5197;48.152;8.590;2023-05-10T04:31:08;11.80;29.40
10304;DHT22;5197;48.152;8.590;2023-05-10T04:33:36;11.80;30.40
10304;DHT22;5197;48.152;8.590;2023-05-10T04:36:03;11.80;29.40
10304;DHT22;5197;48.152;8.590;2023-05-10T04:38:30;11.80;29.40
10304;DHT22;5197;48.152;8.590;2023-05-10T04:41:08;11.80;29.40
10304;DHT22;5197;48.152;8.590;2023-05-10T04:43:35;11.70;28.50
10304;DHT22;5197;48.152;8.590;2023-05-10T04:46:03;11.80;30.50
10304;DHT22;5197;48.152;8.590;2023-05-10T04:48:30;11.70;29.60
10304;DHT22;5197;48.152;8.590;2023-05-10T04:50:57;11.80;29.90
10304;DHT22;5197;48.152;8.590;2023-05-10T04:53:24;11.80;30.00
10304;DHT22;5197;48.152;8.590;2023-05-10T04:55:51;11.80;29.90
10304;DHT22;5197;48.152;8.590;2023-05-10T04:58:18;11.80;29.90
10304;DHT22;5197;48.152;8.590;2023-05-10T05:00:45;11.90;29.70
10304;DHT22;5197;48.152;8.590;2023-05-10T05:03:12;11.90;29.60
10304;DHT22;5197;48.152;8.590;2023-05-10T05:05:40;11.80;29.70
10304;DHT22;5197;48.152;8.590;2023-05-10T05:08:06;11.80;30.00
10304;DHT22;5197;48.152;8.590;2023-05-10T05:10:33;11.90;30.00
10304;DHT22;5197;48.152;8.590;2023-05-10T05:13:00;11.90;30.00
10304;DHT22;5197;48.152;8.590;2023-05-10T05:15:27;11.90;30.30
10304;DHT22;5197;48.152;8.590;2023-05-10T05:17:54;12.00;30.20
10304;DHT22;5197;48.152;8.590;2023-05-10T05:20:21;12.00;30.00
10304;DHT22;5197;48.152;8.590;2023-05-10T05:22:48;12.00;30.10
10304;DHT22;5197;48.152;8.590;2023-05-10T05:25:15;12.00;30.30
10304;DHT22;5197;48.152;8.590;2023-05-10T05:27:43;12.00;31.60
10304;DHT22;5197;48.152;8.590;2023-05-10T05:30:10;12.10;30.20
10304;DHT22;5197;48.152;8.590;2023-05-10T05:32:37;12.10;30.10
10304;DHT22;5197;48.152;8.590;2023-05-10T05:35:05;12.10;30.50
10304;DHT22;5197;48.152;8.590;2023-05-10T05:37:32;12.10;30.70
10304;DHT22;5197;48.152;8.590;2023-05-10T05:39:59;12.10;30.50
10304;DHT22;5197;48.152;8.590;2023-05-10T05:42:28;12.10;30.50
10304;DHT22;5197;48.152;8.590;2023-05-10T05:44:55;12.10;30.50
10304;DHT22;5197;48.152;8.590;2023-05-10T05:47:24;12.20;30.90
10304;DHT22;5197;48.152;8.590;2023-05-10T05:49:52;12.20;31.10
10304;DHT22;5197;48.152;8.590;2023-05-10T05:52:19;12.20;31.10
10304;DHT22;5197;48.152;8.590;2023-05-10T05:54:46;12.20;30.90
10304;DHT22;5197;48.152;8.590;2023-05-10T05:57:13;12.20;30.70
10304;DHT22;5197;48.152;8.590;2023-05-10T05:59:40;12.30;30.60
10304;DHT22;5197;48.152;8.590;2023-05-10T06:02:10;12.30;30.20
10304;DHT22;5197;48.152;8.590;2023-05-10T06:04:38;12.30;30.10
10304;DHT22;5197;48.152;8.590;2023-05-10T06:07:04;12.40;29.90
10304;DHT22;5197;48.152;8.590;2023-05-10T06:09:31;12.40;29.50
10304;DHT22;5197;48.152;8.590;2023-05-10T06:11:58;12.50;29.30
10304;DHT22;5197;48.152;8.590;2023-05-10T06:14:26;12.50;29.00
10304;DHT22;5197;48.152;8.590;2023-05-10T06:16:53;12.50;29.80
10304;DHT22;5197;48.152;8.590;2023-05-10T06:19:20;12.60;28.40
10304;DHT22;5197;48.152;8.590;2023-05-10T06:21:47;12.60;28.20
10304;DHT22;5197;48.152;8.590;2023-05-10T06:24:14;12.60;28.20
10304;DHT22;5197;48.152;8.590;2023-05-10T06:26:41;12.60;28.00
10304;DHT22;5197;48.152;8.590;2023-05-10T06:29:07;12.70;28.00
10304;DHT22;5197;48.152;8.590;2023-05-10T06:31:34;12.70;27.80
10304;DHT22;5197;48.152;8.590;2023-05-10T06:34:02;12.70;27.80
10304;DHT22;5197;48.152;8.590;2023-05-10T06:36:28;12.70;27.50
10304;DHT22;5197;48.152;8.590;2023-05-10T06:38:56;12.70;27.30
10304;DHT22;5197;48.152;8.590;2023-05-10T06:41:23;12.80;27.20
10304;DHT22;5197;48.152;8.590;2023-05-10T06:43:51;12.80;25.90
10304;DHT22;5197;48.152;8.590;2023-05-10T06:46:18;12.80;26.90
10304;DHT22;5197;48.152;8.590;2023-05-10T06:48:45;12.80;26.30
10304;DHT22;5197;48.152;8.590;2023-05-10T06:51:12;12.80;26.40
10304;DHT22;5197;48.152;8.590;2023-05-10T06:53:39;12.80;25.70
10304;DHT22;5197;48.152;8.590;2023-05-10T06:56:06;12.60;26.90
10304;DHT22;5197;48.152;8.590;2023-05-10T06:58:33;12.30;27.80
10304;DHT22;5197;48.152;8.590;2023-05-10T07:01:04;12.10;28.70
10304;DHT22;5197;48.152;8.590;2023-05-10T07:03:32;12.00;29.50
10304;DHT22;5197;48.152;8.590;2023-05-10T07:06:03;11.80;29.80
10304;DHT22;5197;48.152;8.590;2023-05-10T07:08:31;11.80;30.90
10304;DHT22;5197;48.152;8.590;2023-05-10T07:11:03;11.70;32.10
10304;DHT22;5197;48.152;8.590;2023-05-10T07:13:31;11.70;30.20
10304;DHT22;5197;48.152;8.590;2023-05-10T07:15:59;11.60;27.20
10304;DHT22;5197;48.152;8.590;2023-05-10T07:18:27;11.40;27.40
10304;DHT22;5197;48.152;8.590;2023-05-10T07:20:55;11.30;27.50
10304;DHT22;5197;48.152;8.590;2023-05-10T07:23:23;11.20;28.00
10304;DHT22;5197;48.152;8.590;2023-05-10T07:25:51;11.20;28.80
10304;DHT22;5197;48.152;8.590;2023-05-10T07:28:19;11.20;29.60
10304;DHT22;5197;48.152;8.590;2023-05-10T07:30:46;11.20;29.60
10304;DHT22;5197;48.152;8.590;2023-05-10T07:33:14;11.30;29.30
10304;DHT22;5197;48.152;8.590;2023-05-10T07:35:42;11.30;29.00
10304;DHT22;5197;48.152;8.590;2023-05-10T07:38:09;11.40;28.80
10304;DHT22;5197;48.152;8.590;2023-05-10T07:40:39;11.40;28.80
10304;DHT22;5197;48.152;8.590;2023-05-10T07:43:05;11.40;29.60
10304;DHT22;5197;48.152;8.590;2023-05-10T07:45:33;11.40;30.50
10304;DHT22;5197;48.152;8.590;2023-05-10T07:48:01;11.30;31.40
10304;DHT22;5197;48.152;8.590;2023-05-10T07:50:28;11.40;31.50
10304;DHT22;5197;48.152;8.590;2023-05-10T07:52:55;11.50;30.90
10304;DHT22;5197;48.152;8.590;2023-05-10T07:55:22;11.70;31.60
10304;DHT22;5197;48.152;8.590;2023-05-10T07:57:49;11.80;30.00
10304;DHT22;5197;48.152;8.590;2023-05-10T08:00:18;11.90;29.60
10304;DHT22;5197;48.152;8.590;2023-05-10T08:02:47;11.90;29.60
10304;DHT22;5197;48.152;8.590;2023-05-10T08:05:14;12.00;29.30
10304;DHT22;5197;48.152;8.590;2023-05-10T08:07:41;11.80;28.60
10304;DHT22;5197;48.152;8.590;2023-05-10T08:10:09;11.60;31.40
10304;DHT22;5197;48.152;8.590;2023-05-10T08:12:38;11.50;31.60
10304;DHT22;5197;48.152;8.590;2023-05-10T08:15:05;11.40;33.20
10304;DHT22;5197;48.152;8.590;2023-05-10T08:17:33;11.50;33.10
10304;DHT22;5197;48.152;8.590;2023-05-10T08:20:00;11.60;32.80
10304;DHT22;5197;48.152;8.590;2023-05-10T08:22:27;11.70;32.20
10304;DHT22;5197;48.152;8.590;2023-05-10T08:24:54;11.90;31.90
10304;DHT22;5197;48.152;8.590;2023-05-10T08:27:21;11.90;30.00
10304;DHT22;5197;48.152;8.590;2023-05-10T08:29:49;11.90;30.40
10304;DHT22;5197;48.152;8.590;2023-05-10T08:32:17;11.90;30.70
10304;DHT22;5197;48.152;8.590;2023-05-10T08:34:44;12.00;31.40
10304;DHT22;5197;48.152;8.590;2023-05-10T08:37:11;12.10;30.60
10304;DHT22;5197;48.152;8.590;2023-05-10T08:39:40;12.20;30.10
10304;DHT22;5197;48.152;8.590;2023-05-10T08:42:07;12.30;29.70
10304;DHT22;5197;48.152;8.590;2023-05-10T08:44:36;12.40;28.60
10304;DHT22;5197;48.152;8.590;2023-05-10T08:47:06;12.40;27.20
10304;DHT22;5197;48.152;8.590;2023-05-10T08:49:37;12.40;26.90
10304;DHT22;5197;48.152;8.590;2023-05-10T08:52:05;12.40;25.10
10304;DHT22;5197;48.152;8.590;2023-05-10T08:54:34;12.30;25.00
10304;DHT22;5197;48.152;8.590;2023-05-10T08:57:01;12.30;25.50
10304;DHT22;5197;48.152;8.590;2023-05-10T08:59:28;12.30;25.60
10304;DHT22;5197;48.152;8.590;2023-05-10T09:01:57;12.40;25.40
10304;DHT22;5197;48.152;8.590;2023-05-10T09:04:25;12.40;22.40
10304;DHT22;5197;48.152;8.590;2023-05-10T09:06:53;12.30;24.20
10304;DHT22;5197;48.152;8.590;2023-05-10T09:09:21;12.30;25.80
10304;DHT22;5197;48.152;8.590;2023-05-10T09:11:48;12.30;22.90
10304;DHT22;5197;48.152;8.590;2023-05-10T09:14:15;12.20;22.30
10304;DHT22;5197;48.152;8.590;2023-05-10T09:16:43;12.20;23.70
10304;DHT22;5197;48.152;8.590;2023-05-10T09:19:11;12.30;24.10
10304;DHT22;5197;48.152;8.590;2023-05-10T09:21:38;12.70;22.40
10304;DHT22;5197;48.152;8.590;2023-05-10T09:24:07;12.60;22.50
10304;DHT22;5197;48.152;8.590;2023-05-10T09:26:34;12.40;22.40
10304;DHT22;5197;48.152;8.590;2023-05-10T09:29:03;12.50;22.40
10304;DHT22;5197;48.152;8.590;2023-05-10T09:31:47;12.60;22.50
10304;DHT22;5197;48.152;8.590;2023-05-10T09:34:19;12.70;21.10
10304;DHT22;5197;48.152;8.590;2023-05-10T09:36:53;12.70;19.00
10304;DHT22;5197;48.152;8.590;2023-05-10T09:39:33;12.70;18.40
10304;DHT22;5197;48.152;8.590;2023-05-10T09:42:03;12.80;20.80
10304;DHT22;5197;48.152;8.590;2023-05-10T09:44:33;13.00;20.70
10304;DHT22;5197;48.152;8.590;2023-05-10T09:47:01;13.10;22.80
10304;DHT22;5197;48.152;8.590;2023-05-10T09:49:29;13.30;21.10
10304;DHT22;5197;48.152;8.590;2023-05-10T09:52:08;13.50;20.20
10304;DHT22;5197;48.152;8.590;2023-05-10T09:54:35;13.70;19.40
10304;DHT22;5197;48.152;8.590;2023-05-10T09:57:02;13.90;18.20
10304;DHT22;5197;48.152;8.590;2023-05-10T09:59:32;13.90;15.80
10304;DHT22;5197;48.152;8.590;2023-05-10T10:02:00;13.60;6.90
10304;DHT22;5197;48.152;8.590;2023-05-10T10:04:28;13.50;14.80
10304;DHT22;5197;48.152;8.590;2023-05-10T10:07:00;13.50;14.80
10304;DHT22;5197;48.152;8.590;2023-05-10T10:09:28;13.50;15.20
10304;DHT22;5197;48.152;8.590;2023-05-10T10:11:55;13.60;15.90
10304;DHT22;5197;48.152;8.590;2023-05-10T10:14:23;13.70;15.90
10304;DHT22;5197;48.152;8.590;2023-05-10T10:16:51;13.70;15.00
10304;DHT22;5197;48.152;8.590;2023-05-10T10:19:34;13.80;14.10
10304;DHT22;5197;48.152;8.590;2023-05-10T10:22:04;13.70;13.90
10304;DHT22;5197;48.152;8.590;2023-05-10T10:24:32;13.70;14.00
10304;DHT22;5197;48.152;8.590;2023-05-10T10:27:09;13.60;13.10
10304;DHT22;5197;48.152;8.590;2023-05-10T10:29:51;13.30;8.20
10304;DHT22;5197;48.152;8.590;2023-05-10T10:32:30;13.00;11.10
10304;DHT22;5197;48.152;8.590;2023-05-10T10:35:03;12.80;11.70
10304;DHT22;5197;48.152;8.590;2023-05-10T10:37:47;12.70;12.90
10304;DHT22;5197;48.152;8.590;2023-05-10T10:42:54;12.20;14.10
10304;DHT22;5197;48.152;8.590;2023-05-10T10:45:23;12.10;17.40
10304;DHT22;5197;48.152;8.590;2023-05-10T10:48:20;11.80;19.40
10304;DHT22;5197;48.152;8.590;2023-05-10T10:50:47;11.50;18.70
10304;DHT22;5197;48.152;8.590;2023-05-10T10:53:14;11.20;21.60
10304;DHT22;5197;48.152;8.590;2023-05-10T10:55:47;10.70;25.10
10304;DHT22;5197;48.152;8.590;2023-05-10T10:58:30;10.70;25.20
10304;DHT22;5197;48.152;8.590;2023-05-10T11:01:14;10.50;26.40
10304;DHT22;5197;48.152;8.590;2023-05-10T11:06:33;10.40;31.30
10304;DHT22;5197;48.152;8.590;2023-05-10T11:09:11;10.30;34.00
10304;DHT22;5197;48.152;8.590;2023-05-10T11:11:50;10.40;35.90
10304;DHT22;5197;48.152;8.590;2023-05-10T11:14:21;10.30;37.30
10304;DHT22;5197;48.152;8.590;2023-05-10T11:16:49;10.40;35.70
10304;DHT22;5197;48.152;8.590;2023-05-10T11:19:17;10.60;33.50
10304;DHT22;5197;48.152;8.590;2023-05-10T11:21:50;10.80;33.60
10304;DHT22;5197;48.152;8.590;2023-05-10T11:24:23;10.80;30.60
10304;DHT22;5197;48.152;8.590;2023-05-10T11:26:53;10.80;30.10
10304;DHT22;5197;48.152;8.590;2023-05-10T11:29:21;10.90;31.20
10304;DHT22;5197;48.152;8.590;2023-05-10T11:31:48;10.80;26.60
10304;DHT22;5197;48.152;8.590;2023-05-10T11:34:30;10.80;29.10
10304;DHT22;5197;48.152;8.590;2023-05-10T11:36:58;10.90;31.10
10304;DHT22;5197;48.152;8.590;2023-05-10T11:39:30;11.10;32.70
10304;DHT22;5197;48.152;8.590;2023-05-10T11:41:59;11.30;30.90
10304;DHT22;5197;48.152;8.590;2023-05-10T11:44:31;11.40;26.70
10304;DHT22;5197;48.152;8.590;2023-05-10T11:47:01;11.60;25.80
10304;DHT22;5197;48.152;8.590;2023-05-10T11:49:29;11.60;22.10
10304;DHT22;5197;48.152;8.590;2023-05-10T11:52:08;11.80;25.20
10304;DHT22;5197;48.152;8.590;2023-05-10T11:54:37;11.90;27.60
10304;DHT22;5197;48.152;8.590;2023-05-10T11:57:04;12.10;22.10
10304;DHT22;5197;48.152;8.590;2023-05-10T11:59:31;12.10;21.00
10304;DHT22;5197;48.152;8.590;2023-05-10T12:01:59;12.00;18.50
10304;DHT22;5197;48.152;8.590;2023-05-10T12:04:26;12.30;22.30
10304;DHT22;5197;48.152;8.590;2023-05-10T12:06:56;12.50;19.30
10304;DHT22;5197;48.152;8.590;2023-05-10T12:09:23;12.50;17.90
10304;DHT22;5197;48.152;8.590;2023-05-10T12:12:05;12.60;17.50
10304;DHT22;5197;48.152;8.590;2023-05-10T12:14:35;12.80;17.60
10304;DHT22;5197;48.152;8.590;2023-05-10T12:17:02;13.10;17.80
10304;DHT22;5197;48.152;8.590;2023-05-10T12:19:37;13.40;16.70
10304;DHT22;5197;48.152;8.590;2023-05-10T12:22:07;13.40;9.70
10304;DHT22;5197;48.152;8.590;2023-05-10T12:24:37;13.40;11.60
10304;DHT22;5197;48.152;8.590;2023-05-10T12:27:10;13.30;11.80
10304;DHT22;5197;48.152;8.590;2023-05-10T12:29:41;13.20;9.30
10304;DHT22;5197;48.152;8.590;2023-05-10T12:32:11;13.10;11.40
10304;DHT22;5197;48.152;8.590;2023-05-10T12:34:38;13.00;11.40
10304;DHT22;5197;48.152;8.590;2023-05-10T12:37:05;12.90;10.80
10304;DHT22;5197;48.152;8.590;2023-05-10T12:39:41;13.00;11.80
10304;DHT22;5197;48.152;8.590;2023-05-10T12:42:09;13.00;11.90
10304;DHT22;5197;48.152;8.590;2023-05-10T12:44:37;13.00;11.50
10304;DHT22;5197;48.152;8.590;2023-05-10T12:47:04;13.00;11.30
10304;DHT22;5197;48.152;8.590;2023-05-10T12:49:31;12.90;9.90
10304;DHT22;5197;48.152;8.590;2023-05-10T12:51:58;12.80;9.80
10304;DHT22;5197;48.152;8.590;2023-05-10T12:54:25;12.70;10.00
10304;DHT22;5197;48.152;8.590;2023-05-10T12:56:52;12.80;11.30
10304;DHT22;5197;48.152;8.590;2023-05-10T12:59:19;12.90;10.00
10304;DHT22;5197;48.152;8.590;2023-05-10T13:01:46;13.00;9.50
10304;DHT22;5197;48.152;8.590;2023-05-10T13:04:13;13.10;7.60
10304;DHT22;5197;48.152;8.590;2023-05-10T13:06:40;13.20;8.50
10304;DHT22;5197;48.152;8.590;2023-05-10T13:09:07;13.40;9.20
10304;DHT22;5197;48.152;8.590;2023-05-10T13:11:34;13.60;7.70
10304;DHT22;5197;48.152;8.590;2023-05-10T13:14:01;13.60;7.00
10304;DHT22;5197;48.152;8.590;2023-05-10T13:16:30;13.50;6.90
10304;DHT22;5197;48.152;8.590;2023-05-10T13:18:57;13.50;6.50
10304;DHT22;5197;48.152;8.590;2023-05-10T13:21:25;13.60;6.70
10304;DHT22;5197;48.152;8.590;2023-05-10T13:23:53;13.50;7.00
10304;DHT22;5197;48.152;8.590;2023-05-10T13:26:20;13.30;7.00
10304;DHT22;5197;48.152;8.590;2023-05-10T13:28:47;13.10;7.70
10304;DHT22;5197;48.152;8.590;2023-05-10T13:31:15;12.90;8.50
10304;DHT22;5197;48.152;8.590;2023-05-10T13:33:42;12.50;9.10
10304;DHT22;5197;48.152;8.590;2023-05-10T13:36:09;12.50;11.00
10304;DHT22;5197;48.152;8.590;2023-05-10T13:38:36;12.50;11.30
10304;DHT22;5197;48.152;8.590;2023-05-10T13:41:04;12.40;11.30
10304;DHT22;5197;48.152;8.590;2023-05-10T13:43:31;12.50;11.80
10304;DHT22;5197;48.152;8.590;2023-05-10T13:45:58;12.70;11.90
10304;DHT22;5197;48.152;8.590;2023-05-10T13:48:26;12.90;11.30
10304;DHT22;5197;48.152;8.590;2023-05-10T13:50:53;13.00;9.50
10304;DHT22;5197;48.152;8.590;2023-05-10T13:53:20;13.10;8.70
10304;DHT22;5197;48.152;8.590;2023-05-10T13:55:47;13.10;8.40
10304;DHT22;5197;48.152;8.590;2023-05-10T13:58:14;13.30;8.50
10304;DHT22;5197;48.152;8.590;2023-05-10T14:00:41;13.30;7.60
10304;DHT22;5197;48.152;8.590;2023-05-10T14:03:08;13.30;8.10
10304;DHT22;5197;48.152;8.590;2023-05-10T14:05:38;13.30;7.00
10304;DHT22;5197;48.152;8.590;2023-05-10T14:08:05;13.30;7.70
10304;DHT22;5197;48.152;8.590;2023-05-10T14:10:32;13.10;7.80
10304;DHT22;5197;48.152;8.590;2023-05-10T14:12:59;13.10;8.30
10304;DHT22;5197;48.152;8.590;2023-05-10T14:15:26;13.00;8.50
10304;DHT22;5197;48.152;8.590;2023-05-10T14:17:53;13.00;9.00
10304;DHT22;5197;48.152;8.590;2023-05-10T14:20:21;12.90;10.10
10304;DHT22;5197;48.152;8.590;2023-05-10T14:22:48;12.80;10.70
10304;DHT22;5197;48.152;8.590;2023-05-10T14:25:15;12.60;10.80
10304;DHT22;5197;48.152;8.590;2023-05-10T14:27:42;12.50;12.30
10304;DHT22;5197;48.152;8.590;2023-05-10T14:30:11;12.50;12.60
10304;DHT22;5197;48.152;8.590;2023-05-10T14:32:38;12.60;13.00
10304;DHT22;5197;48.152;8.590;2023-05-10T14:35:05;12.70;12.80
10304;DHT22;5197;48.152;8.590;2023-05-10T14:37:33;12.70;11.40
10304;DHT22;5197;48.152;8.590;2023-05-10T14:40:00;12.70;12.80
10304;DHT22;5197;48.152;8.590;2023-05-10T14:42:27;12.70;14.00
10304;DHT22;5197;48.152;8.590;2023-05-10T14:44:55;12.80;15.80
10304;DHT22;5197;48.152;8.590;2023-05-10T14:47:22;12.80;14.60
10304;DHT22;5197;48.152;8.590;2023-05-10T14:49:49;12.80;14.30
10304;DHT22;5197;48.152;8.590;2023-05-10T14:52:16;12.90;12.90
10304;DHT22;5197;48.152;8.590;2023-05-10T14:54:44;12.90;11.00
10304;DHT22;5197;48.152;8.590;2023-05-10T14:57:11;13.00;12.20
10304;DHT22;5197;48.152;8.590;2023-05-10T14:59:38;13.10;11.40
10304;DHT22;5197;48.152;8.590;2023-05-10T15:02:06;13.30;10.00
10304;DHT22;5197;48.152;8.590;2023-05-10T15:04:35;13.30;8.90
10304;DHT22;5197;48.152;8.590;2023-05-10T15:07:03;13.30;8.20
10304;DHT22;5197;48.152;8.590;2023-05-10T15:09:30;13.40;9.20
10304;DHT22;5197;48.152;8.590;2023-05-10T15:11:57;13.40;8.20
10304;DHT22;5197;48.152;8.590;2023-05-10T15:14:24;13.40;7.50
10304;DHT22;5197;48.152;8.590;2023-05-10T15:16:51;13.40;7.80
10304;DHT22;5197;48.152;8.590;2023-05-10T15:19:19;13.50;8.80
10304;DHT22;5197;48.152;8.590;2023-05-10T15:21:46;13.40;8.10
10304;DHT22;5197;48.152;8.590;2023-05-10T15:24:14;13.30;8.20
10304;DHT22;5197;48.152;8.590;2023-05-10T15:26:41;13.40;8.50
10304;DHT22;5197;48.152;8.590;2023-05-10T15:29:08;13.40;8.40
10304;DHT22;5197;48.152;8.590;2023-05-10T15:31:35;13.40;8.00
10304;DHT22;5197;48.152;8.590;2023-05-10T15:34:02;13.40;8.40
10304;DHT22;5197;48.152;8.590;2023-05-10T15:36:31;13.40;6.90
10304;DHT22;5197;48.152;8.590;2023-05-10T15:38:58;13.50;5.40
10304;DHT22;5197;48.152;8.590;2023-05-10T15:41:25;13.70;5.20
10304;DHT22;5197;48.152;8.590;2023-05-10T15:43:53;13.80;4.50
10304;DHT22;5197;48.152;8.590;2023-05-10T15:46:20;13.90;4.20
10304;DHT22;5197;48.152;8.590;2023-05-10T15:48:48;14.10;4.30
10304;DHT22;5197;48.152;8.590;2023-05-10T15:51:15;14.10;3.50
10304;DHT22;5197;48.152;8.590;2023-05-10T15:53:42;14.00;2.40
10304;DHT22;5197;48.152;8.590;2023-05-10T15:56:29;14.00;1.40
10304;DHT22;5197;48.152;8.590;2023-05-10T15:58:56;13.90;2.20
10304;DHT22;5197;48.152;8.590;2023-05-10T16:01:24;13.80;2.10
10304;DHT22;5197;48.152;8.590;2023-05-10T16:03:51;13.90;1.90
10304;DHT22;5197;48.152;8.590;2023-05-10T16:06:18;13.90;1.90
10304;DHT22;5197;48.152;8.590;2023-05-10T16:08:45;14.00;1.90
10304;DHT22;5197;48.152;8.590;2023-05-10T16:11:13;14.00;1.30
10304;DHT22;5197;48.152;8.590;2023-05-10T16:13:40;14.20;1.00
10304;DHT22;5197;48.152;8.590;2023-05-10T16:16:08;14.30;1.00
10304;DHT22;5197;48.152;8.590;2023-05-10T16:18:35;14.30;1.00
10304;DHT22;5197;48.152;8.590;2023-05-10T16:21:02;14.30;1.00
10304;DHT22;5197;48.152;8.590;2023-05-10T16:23:30;14.10;1.00